SWR180 LSZH-VTBS
Flight info
| Callsign | SWR180 |
|---|---|
| Flight time | N/A |
| Altitude | 35000 |
| Route | DEGES3S DEGES Z2 UMVEG DCT DIMLO DCT INVED DCT SOKRU/N0472F370 DCT DINRO DCT UDROS UM859 KARDE UL851 TBN UM11 REBLO M11 LUSAL N701 LARGI B701 TUGTA A909 BIBIM/N0477F390 A909 LEMOD N644 DI A466 SULOM M890 LKN R460 GGC/N0473F410 R460 CEA L507 IGONI DCT WILLA WILLA1C |
| Aircraft | A343/H-SDE2E3FGHIJ4J5M1RWXY/LB1D1 |
Departure
| Time | 2026-04-30 13:25 |
|---|---|
| Airport | Zürich Airport (LSZH) |
Arrival
| Time | N/A |
|---|---|
| Airport | Suvarnabhumi Airport (VTBS) |
| Time | Latitude | Longitude | Altitude | Speed | Heading |
|---|---|---|---|---|---|
| 2026-04-30 12:50 | 47.46196 | 8.55286 | 1401 ft | 0 kts | 186° |
| 2026-04-30 13:06 | 47.46207 | 8.55288 | 1401 ft | 3 kts | 186° |
| 2026-04-30 13:06 | 47.46225 | 8.55291 | 1401 ft | 3 kts | 186° |
| 2026-04-30 13:06 | 47.46244 | 8.55294 | 1408 ft | 3 kts | 186° |
| 2026-04-30 13:07 | 47.46254 | 8.55295 | 1402 ft | 0 kts | 193° |
| 2026-04-30 13:07 | 47.46257 | 8.55295 | 1402 ft | 1 kts | 204° |
| 2026-04-30 13:07 | 47.46264 | 8.55298 | 1404 ft | 1 kts | 235° |
| 2026-04-30 13:08 | 47.46269 | 8.55309 | 1409 ft | 1 kts | 273° |
| 2026-04-30 13:08 | 47.46269 | 8.55312 | 1409 ft | 0 kts | 273° |
| 2026-04-30 13:13 | 47.46269 | 8.55311 | 1400 ft | 0 kts | 273° |
| 2026-04-30 13:14 | 47.46270 | 8.55300 | 1406 ft | 3 kts | 273° |
| 2026-04-30 13:14 | 47.46272 | 8.55252 | 1400 ft | 7 kts | 274° |
| 2026-04-30 13:14 | 47.46287 | 8.55028 | 1404 ft | 14 kts | 275° |
| 2026-04-30 13:15 | 47.46296 | 8.54885 | 1409 ft | 11 kts | 277° |
| 2026-04-30 13:15 | 47.46356 | 8.54709 | 1407 ft | 11 kts | 333° |
| 2026-04-30 13:15 | 47.46421 | 8.54663 | 1402 ft | 10 kts | 334° |
| 2026-04-30 13:16 | 47.46478 | 8.54623 | 1407 ft | 9 kts | 335° |
| 2026-04-30 13:16 | 47.46533 | 8.54586 | 1407 ft | 9 kts | 335° |
| 2026-04-30 13:16 | 47.46596 | 8.54543 | 1403 ft | 11 kts | 335° |
| 2026-04-30 13:17 | 47.46747 | 8.54441 | 1405 ft | 13 kts | 338° |
| 2026-04-30 13:17 | 47.46838 | 8.54391 | 1404 ft | 14 kts | 338° |
| 2026-04-30 13:17 | 47.46971 | 8.54300 | 1411 ft | 10 kts | 335° |
| 2026-04-30 13:18 | 47.47060 | 8.54240 | 1409 ft | 11 kts | 335° |
| 2026-04-30 13:18 | 47.47191 | 8.54148 | 1413 ft | 11 kts | 335° |
| 2026-04-30 13:18 | 47.47266 | 8.54096 | 1411 ft | 13 kts | 335° |
| 2026-04-30 13:19 | 47.47345 | 8.54042 | 1410 ft | 10 kts | 335° |
| 2026-04-30 13:19 | 47.47377 | 8.54020 | 1410 ft | 0 kts | 335° |
| 2026-04-30 13:20 | 47.47380 | 8.54018 | 1409 ft | 3 kts | 335° |
| 2026-04-30 13:20 | 47.47431 | 8.53984 | 1409 ft | 12 kts | 335° |
| 2026-04-30 13:20 | 47.47524 | 8.53922 | 1408 ft | 16 kts | 335° |
| 2026-04-30 13:21 | 47.47603 | 8.53825 | 1411 ft | 13 kts | 292° |
| 2026-04-30 13:21 | 47.47598 | 8.53702 | 1409 ft | 11 kts | 248° |
| 2026-04-30 13:21 | 47.47555 | 8.53623 | 1406 ft | 9 kts | 202° |
| 2026-04-30 13:22 | 47.47491 | 8.53647 | 1404 ft | 0 kts | 154° |
| 2026-04-30 13:24 | 47.47460 | 8.53670 | 1405 ft | 22 kts | 154° |
| 2026-04-30 13:24 | 47.46371 | 8.54419 | 1410 ft | 145 kts | 155° |
| 2026-04-30 13:25 | 47.44113 | 8.55938 | 2091 ft | 188 kts | 150° |
| 2026-04-30 13:25 | 47.43116 | 8.58852 | 3357 ft | 178 kts | 58° |
| 2026-04-30 13:26 | 47.46230 | 8.62431 | 4871 ft | 217 kts | 69° |
| 2026-04-30 13:26 | 47.46483 | 8.66791 | 6565 ft | 215 kts | 99° |
| 2026-04-30 13:27 | 47.45699 | 8.71186 | 7827 ft | 232 kts | 101° |
| 2026-04-30 13:28 | 47.45110 | 8.78305 | 9823 ft | 238 kts | 95° |
| 2026-04-30 13:28 | 47.44788 | 8.83248 | 10973 ft | 243 kts | 96° |
| 2026-04-30 13:28 | 47.44581 | 8.85737 | 11587 ft | 244 kts | 96° |
| 2026-04-30 13:29 | 47.44116 | 8.89925 | 12338 ft | 258 kts | 97° |
| 2026-04-30 13:29 | 47.43615 | 8.95503 | 12809 ft | 291 kts | 94° |
| 2026-04-30 13:30 | 47.42779 | 9.05067 | 13596 ft | 333 kts | 97° |
| 2026-04-30 13:31 | 47.42040 | 9.12104 | 14101 ft | 359 kts | 96° |
| 2026-04-30 13:31 | 47.41699 | 9.23529 | 15254 ft | 378 kts | 79° |
| 2026-04-30 13:32 | 47.42760 | 9.31211 | 16236 ft | 386 kts | 75° |
| 2026-04-30 13:32 | 47.44030 | 9.38904 | 17341 ft | 390 kts | 75° |
| 2026-04-30 13:33 | 47.45279 | 9.46755 | 18447 ft | 395 kts | 76° |
| 2026-04-30 13:33 | 47.46492 | 9.54752 | 19378 ft | 401 kts | 76° |
| 2026-04-30 13:34 | 47.46960 | 9.58834 | 19792 ft | 406 kts | 82° |
| 2026-04-30 13:34 | 47.46750 | 9.71433 | 21184 ft | 415 kts | 91° |
| 2026-04-30 13:35 | 47.45961 | 9.84684 | 22472 ft | 422 kts | 92° |
| 2026-04-30 13:36 | 47.45448 | 9.93385 | 23312 ft | 426 kts | 91° |
| 2026-04-30 13:36 | 47.45195 | 9.97770 | 23685 ft | 429 kts | 91° |
| 2026-04-30 13:36 | 47.44690 | 10.06586 | 24441 ft | 432 kts | 91° |
| 2026-04-30 13:37 | 47.44435 | 10.11011 | 24851 ft | 432 kts | 91° |
| 2026-04-30 13:37 | 47.43749 | 10.19865 | 25507 ft | 437 kts | 95° |
| 2026-04-30 13:38 | 47.42642 | 10.28728 | 26184 ft | 441 kts | 97° |
| 2026-04-30 13:38 | 47.42044 | 10.33171 | 26450 ft | 442 kts | 97° |
| 2026-04-30 13:38 | 47.40818 | 10.42101 | 27073 ft | 444 kts | 97° |
| 2026-04-30 13:39 | 47.39594 | 10.51043 | 27890 ft | 443 kts | 96° |
| 2026-04-30 13:39 | 47.38362 | 10.59984 | 28403 ft | 447 kts | 97° |
| 2026-04-30 13:40 | 47.37736 | 10.64495 | 28501 ft | 452 kts | 97° |
| 2026-04-30 13:40 | 47.37104 | 10.69024 | 28882 ft | 450 kts | 97° |
| 2026-04-30 13:40 | 47.36479 | 10.73481 | 29333 ft | 447 kts | 97° |
| 2026-04-30 13:40 | 47.35851 | 10.77958 | 29666 ft | 445 kts | 96° |
| 2026-04-30 13:41 | 47.35226 | 10.82429 | 30051 ft | 443 kts | 97° |
| 2026-04-30 13:41 | 47.34601 | 10.86868 | 30501 ft | 440 kts | 96° |
| 2026-04-30 13:41 | 47.33978 | 10.91281 | 30765 ft | 441 kts | 96° |
| 2026-04-30 13:42 | 47.32725 | 11.00176 | 31130 ft | 442 kts | 96° |
| 2026-04-30 13:42 | 47.32093 | 11.04623 | 31339 ft | 443 kts | 97° |
| 2026-04-30 13:42 | 47.30821 | 11.13515 | 31699 ft | 444 kts | 97° |
| 2026-04-30 13:43 | 47.30184 | 11.17951 | 32018 ft | 441 kts | 97° |
| 2026-04-30 13:43 | 47.29544 | 11.22394 | 32113 ft | 444 kts | 97° |
| 2026-04-30 13:43 | 47.28902 | 11.26833 | 32400 ft | 444 kts | 97° |
| 2026-04-30 13:43 | 47.28256 | 11.31298 | 32467 ft | 447 kts | 97° |
| 2026-04-30 13:44 | 47.27604 | 11.35775 | 32601 ft | 448 kts | 97° |
| 2026-04-30 13:44 | 47.26950 | 11.40257 | 32788 ft | 448 kts | 97° |
| 2026-04-30 13:44 | 47.26296 | 11.44735 | 33007 ft | 448 kts | 97° |
| 2026-04-30 13:44 | 47.25640 | 11.49218 | 33199 ft | 448 kts | 97° |
| 2026-04-30 13:45 | 47.24487 | 11.58236 | 33581 ft | 447 kts | 93° |
| 2026-04-30 13:45 | 47.24072 | 11.62772 | 33762 ft | 447 kts | 92° |
| 2026-04-30 13:45 | 47.23673 | 11.67312 | 33930 ft | 449 kts | 92° |
| 2026-04-30 13:46 | 47.23283 | 11.71884 | 34046 ft | 451 kts | 92° |
| 2026-04-30 13:46 | 47.22898 | 11.76460 | 34245 ft | 451 kts | 92° |
| 2026-04-30 13:46 | 47.22513 | 11.81032 | 34373 ft | 452 kts | 92° |
| 2026-04-30 13:46 | 47.22124 | 11.85631 | 34531 ft | 452 kts | 92° |
| 2026-04-30 13:47 | 47.21735 | 11.90210 | 34700 ft | 452 kts | 92° |
| 2026-04-30 13:47 | 47.21343 | 11.94796 | 34854 ft | 452 kts | 92° |
| 2026-04-30 13:47 | 47.20953 | 11.99330 | 34972 ft | 453 kts | 92° |
| 2026-04-30 13:47 | 47.20556 | 12.03925 | 35093 ft | 453 kts | 92° |
| 2026-04-30 13:48 | 47.20154 | 12.08530 | 35209 ft | 454 kts | 92° |
| 2026-04-30 13:48 | 47.19342 | 12.17808 | 35243 ft | 460 kts | 92° |
| 2026-04-30 13:49 | 47.18514 | 12.27112 | 35244 ft | 458 kts | 93° |
| 2026-04-30 13:49 | 47.17682 | 12.36398 | 35246 ft | 457 kts | 93° |
| 2026-04-30 13:50 | 47.16848 | 12.45659 | 35266 ft | 457 kts | 93° |
| 2026-04-30 13:50 | 47.15581 | 12.59578 | 35235 ft | 458 kts | 92° |
| 2026-04-30 13:51 | 47.15014 | 12.65716 | 35242 ft | 458 kts | 93° |
| 2026-04-30 13:51 | 47.13941 | 12.77253 | 35241 ft | 458 kts | 93° |
| 2026-04-30 13:52 | 47.13076 | 12.86467 | 35277 ft | 458 kts | 93° |
| 2026-04-30 13:52 | 47.12193 | 12.95797 | 35252 ft | 459 kts | 93° |
| 2026-04-30 13:53 | 47.11311 | 13.05032 | 35249 ft | 460 kts | 93° |
| 2026-04-30 13:53 | 47.10414 | 13.14332 | 35250 ft | 460 kts | 93° |
| 2026-04-30 13:54 | 47.09507 | 13.23638 | 35249 ft | 460 kts | 93° |
| 2026-04-30 13:54 | 47.08595 | 13.32938 | 35257 ft | 461 kts | 93° |
| 2026-04-30 13:55 | 47.07671 | 13.42281 | 35255 ft | 463 kts | 94° |
| 2026-04-30 13:55 | 47.06738 | 13.51638 | 35262 ft | 463 kts | 94° |
| 2026-04-30 13:56 | 47.05793 | 13.61001 | 35268 ft | 464 kts | 94° |
| 2026-04-30 13:56 | 47.04843 | 13.70356 | 35284 ft | 464 kts | 94° |
| 2026-04-30 13:57 | 47.03893 | 13.79644 | 35278 ft | 464 kts | 94° |
| 2026-04-30 13:57 | 47.02929 | 13.88989 | 35280 ft | 464 kts | 94° |
| 2026-04-30 13:58 | 47.01448 | 14.02999 | 35289 ft | 464 kts | 96° |
| 2026-04-30 13:59 | 47.00363 | 14.12347 | 35305 ft | 466 kts | 96° |
| 2026-04-30 13:59 | 46.99314 | 14.21704 | 35302 ft | 466 kts | 96° |
| 2026-04-30 14:00 | 46.98299 | 14.31071 | 35308 ft | 466 kts | 96° |
| 2026-04-30 14:00 | 46.96785 | 14.45127 | 35306 ft | 466 kts | 96° |
| 2026-04-30 14:01 | 46.95764 | 14.54510 | 35299 ft | 468 kts | 96° |
| 2026-04-30 14:01 | 46.94729 | 14.63921 | 35292 ft | 469 kts | 96° |
| 2026-04-30 14:02 | 46.93681 | 14.73349 | 35305 ft | 469 kts | 96° |
| 2026-04-30 14:02 | 46.92627 | 14.82775 | 35300 ft | 469 kts | 96° |
| 2026-04-30 14:03 | 46.91568 | 14.92189 | 35326 ft | 470 kts | 96° |
| 2026-04-30 14:03 | 46.90497 | 15.01632 | 35317 ft | 471 kts | 96° |
| 2026-04-30 14:04 | 46.89417 | 15.11071 | 35331 ft | 471 kts | 97° |
| 2026-04-30 14:04 | 46.88327 | 15.20531 | 35352 ft | 471 kts | 97° |
| 2026-04-30 14:05 | 46.87230 | 15.29978 | 35355 ft | 472 kts | 97° |
| 2026-04-30 14:05 | 46.86130 | 15.39382 | 35348 ft | 474 kts | 97° |
| 2026-04-30 14:06 | 46.84451 | 15.53611 | 35348 ft | 474 kts | 97° |
| 2026-04-30 14:07 | 46.82754 | 15.67828 | 35375 ft | 474 kts | 97° |
| 2026-04-30 14:08 | 46.81034 | 15.82079 | 35355 ft | 475 kts | 97° |
| 2026-04-30 14:08 | 46.79296 | 15.96317 | 35362 ft | 475 kts | 98° |
| 2026-04-30 14:09 | 46.78127 | 16.05811 | 35364 ft | 475 kts | 98° |
| 2026-04-30 14:10 | 46.76360 | 16.20036 | 35364 ft | 475 kts | 98° |
| 2026-04-30 14:10 | 46.75171 | 16.29527 | 35364 ft | 475 kts | 98° |
| 2026-04-30 14:11 | 46.73975 | 16.39003 | 35364 ft | 476 kts | 98° |
| 2026-04-30 14:11 | 46.72765 | 16.48531 | 35380 ft | 478 kts | 98° |
| 2026-04-30 14:12 | 46.71545 | 16.58065 | 35360 ft | 479 kts | 98° |
| 2026-04-30 14:12 | 46.70317 | 16.67596 | 35374 ft | 479 kts | 98° |
| 2026-04-30 14:13 | 46.69088 | 16.77068 | 35364 ft | 479 kts | 98° |
| 2026-04-30 14:13 | 46.67843 | 16.86596 | 35388 ft | 479 kts | 99° |
| 2026-04-30 14:14 | 46.66587 | 16.96148 | 35373 ft | 480 kts | 99° |
| 2026-04-30 14:14 | 46.65322 | 17.05701 | 35375 ft | 480 kts | 99° |
| 2026-04-30 14:15 | 46.64050 | 17.15239 | 35372 ft | 480 kts | 99° |
| 2026-04-30 14:15 | 46.62769 | 17.24789 | 35391 ft | 481 kts | 99° |
| 2026-04-30 14:16 | 46.61479 | 17.34345 | 35373 ft | 482 kts | 99° |
| 2026-04-30 14:16 | 46.60177 | 17.43919 | 35369 ft | 483 kts | 99° |